Latest Weather Observations for Hartz Mountains

IDT60801

Issued at 6:32 am EDT Saturday 21 October 2017 (issued every 30 minutes, with the page automatically refreshed every 10 minutes)

About weather observations | Map of weather stations | Latest weather observations for TAS | Other Formats
Station Details ID: 094191 Name: HARTZ MOUNTAIN (KEOGHS PIMPLE) Lat: -43.20 Lon: 146.77 Height: 831.0 m
Data from the previous 72 hours. | See also: Recent months at Hartz Mountains
Date/Time
EDT
Temp
°C
App
Temp
°C
Dew
Point
°C
Rel
Hum
%
Delta-T
°C
Wind Press
QNH
hPa
Press
MSL
hPa
Rain since
9am
mm
Dir  Spd
km/h
Gust
km/h
Spd
kts
Gust
kts
21/06:30am 3.4 -4.3 3.4 100 0.0 WNW 33 46 18 25 - - 0.4
21/06:09am 3.4 -3.3 3.4 100 0.0 WNW 28 48 15 26 - - 0.2
21/06:00am 3.4 -3.0 3.4 100 0.0 WNW 26 44 14 24 - - 0.2
21/05:35am 3.4 -4.1 3.4 100 0.0 WNW 32 50 17 27 - - 0.2
21/05:30am 3.4 -4.7 3.4 100 0.0 WNW 35 50 19 27 - - 0.2
21/05:00am 3.3 -4.2 3.3 100 0.0 WNW 32 52 17 28 - - 0.2
21/04:30am 3.2 -5.3 3.2 100 0.0 WNW 37 56 20 30 - - 0.2
21/04:13am 3.1 -5.0 3.1 100 0.0 WNW 35 54 19 29 - - 0.2
21/04:00am 3.0 -5.9 3.0 100 0.0 WNW 39 54 21 29 - - 0.2
21/03:33am 2.9 -5.6 2.9 100 0.0 WNW 37 56 20 30 - - 0.2
21/03:30am 2.9 -6.0 2.9 100 0.0 WNW 39 56 21 30 - - 0.2
21/03:25am 2.8 -5.8 2.8 100 0.0 WNW 37 56 20 30 - - 0.2
21/03:00am 2.8 -5.8 2.7 99 0.0 W 37 52 20 28 - - 0.2
21/02:30am 2.8 -6.5 2.7 99 0.0 WNW 41 59 22 32 - - 0.2
21/02:00am 2.7 -6.3 2.4 98 0.1 WNW 39 61 21 33 - - 0.2
21/01:30am 2.7 -8.4 2.6 99 0.0 W 50 72 27 39 - - 0.2
21/01:00am 2.7 -6.3 2.6 99 0.0 W 39 61 21 33 - - 0.0
21/12:30am 2.6 -7.3 2.5 99 0.0 WNW 44 63 24 34 - - 0.0
21/12:00am 2.7 -7.1 2.4 98 0.1 WNW 43 74 23 40 - - 0.0
 
Date/Time
EDT
Temp
°C
App
Temp
°C
Dew
Point
°C
Rel
Hum
%
Delta-T
°C
Wind Press
QNH
hPa
Press
MSL
hPa
Rain since
9am
mm
Dir  Spd
km/h
Gust
km/h
Spd
kts
Gust
kts
20/11:30pm 2.8 -7.0 2.2 96 0.2 WNW 43 67 23 36 - - 0.0
20/11:00pm 2.7 -7.3 2.1 96 0.2 W 44 96 24 52 - - 0.0
20/10:56pm 2.8 -6.6 2.2 96 0.2 W 41 96 22 52 - - 0.0
20/10:30pm 2.7 -7.3 2.0 95 0.3 W 44 70 24 38 - - 0.0
20/10:00pm 2.8 -7.0 2.1 95 0.3 W 43 72 23 39 - - 0.0
20/09:53pm 2.6 -8.2 2.0 96 0.2 W 48 82 26 44 - - 0.0
20/09:51pm 2.6 -9.0 2.0 96 0.2 W 52 82 28 44 - - 0.0
20/09:30pm 2.6 -11.0 2.0 96 0.2 WSW 63 85 34 46 - - 0.0
20/09:28pm 2.6 -11.4 2.0 96 0.2 WSW 65 85 35 46 - - 0.0
20/09:21pm 2.6 -9.3 2.0 96 0.2 WSW 54 78 29 42 - - 0.0
20/09:00pm 2.5 -7.9 1.9 96 0.2 W 46 70 25 38 - - 0.0
20/08:30pm 2.4 -8.4 2.0 97 0.2 W 48 69 26 37 - - 0.0
20/08:00pm 2.5 -9.0 2.2 98 0.1 WSW 52 74 28 40 - - 0.0
20/07:30pm 2.5 -7.9 2.1 97 0.2 W 46 65 25 35 - - 0.0
20/07:00pm 2.7 -7.4 1.7 93 0.4 W 44 69 24 37 - - 0.0
20/06:48pm 2.9 -7.2 1.7 92 0.5 W 44 67 24 36 - - 0.0
20/06:37pm 3.0 -10.0 1.5 90 0.6 WSW 59 78 32 42 - - 0.0
20/06:30pm 3.1 -11.0 1.5 89 0.7 WSW 65 78 35 42 - - 0.0
20/06:06pm 3.2 -11.0 1.1 86 0.9 W 65 83 35 45 - - 0.0
20/06:00pm 3.2 -11.0 0.9 85 0.9 W 65 82 35 44 - - 0.0
20/05:30pm 3.6 -11.0 0.7 81 1.2 W 67 93 36 50 - - 0.0
20/05:00pm 4.4 -9.4 1.3 80 1.3 WSW 63 87 34 47 - - 0.0
20/04:30pm 5.0 -8.7 1.7 79 1.4 W 63 95 34 51 - - 0.0
20/04:20pm 4.8 -8.9 1.8 81 1.3 WSW 63 91 34 49 - - 0.0
20/04:00pm 4.8 -6.2 3.1 89 0.7 W 50 74 27 40 - - 0.0
20/03:33pm 4.6 -7.2 2.9 89 0.7 WSW 54 74 29 40 - - 0.0
20/03:30pm 4.6 -6.4 3.1 90 0.6 W 50 70 27 38 - - 0.0
20/03:29pm 4.6 -6.3 3.3 91 0.6 W 50 70 27 38 - - 0.0
20/03:00pm 7.1 -1.5 4.8 85 1.1 W 39 69 21 37 - - 0.0
20/02:30pm 5.9 -4.4 4.9 93 0.5 WSW 48 69 26 37 - - 0.0
20/02:29pm 5.6 -4.8 4.4 92 0.5 WSW 48 69 26 37 - - 0.0
20/02:25pm 5.7 -5.1 3.9 88 0.8 WSW 50 69 27 37 - - 0.0
20/02:00pm 6.5 -1.4 4.3 86 1.0 WSW 35 54 19 29 - - 0.0
20/01:30pm 6.3 -3.1 4.6 89 0.8 WSW 43 65 23 35 - - 0.0
20/01:00pm 5.2 -4.3 4.0 92 0.5 WSW 43 63 23 34 - - 0.0
20/12:30pm 6.5 -0.8 4.5 87 0.9 WSW 32 50 17 27 - - 0.0
20/12:00pm 6.4 -2.4 3.4 81 1.3 WSW 39 61 21 33 - - 0.0
20/11:48am 5.6 -2.1 2.4 80 1.4 W 32 59 17 32 - - 0.0
20/11:44am 6.2 -1.8 4.0 86 1.0 WSW 35 59 19 32 - - 0.0
20/11:30am 5.4 -5.5 3.7 89 0.8 WSW 50 72 27 39 - - 0.0
20/11:00am 5.2 -4.6 3.4 88 0.8 WSW 44 63 24 34 - - 0.0
20/10:30am 5.3 -4.3 3.3 87 0.9 WSW 43 65 23 35 - - 0.0
20/10:00am 4.8 -5.0 3.5 91 0.6 WSW 44 67 24 36 - - 0.0
20/09:53am 4.5 -4.0 3.3 92 0.5 WSW 37 67 20 36 - - 0.0
20/09:32am 4.4 -2.3 3.5 94 0.4 WSW 28 48 15 26 - - 0.0
20/09:30am 4.8 -1.4 4.1 95 0.3 W 26 41 14 22 - - 0.0
20/09:00am 4.4 -3.2 4.0 97 0.2 WSW 33 61 18 33 - - 7.4
20/08:32am 3.5 -4.6 3.2 98 0.1 W 35 69 19 37 - - 7.4
20/08:30am 3.4 -4.4 3.0 97 0.2 W 33 50 18 27 - - 7.4
20/08:15am 3.5 -4.2 3.4 99 0.0 WSW 33 54 18 29 - - 7.4
20/08:00am 3.1 -4.5 3.0 99 0.0 WSW 32 48 17 26 - - 7.4
20/07:30am 2.6 -4.3 2.5 99 0.0 WSW 28 46 15 25 - - 7.4
20/07:24am 2.6 -4.3 2.5 99 0.0 WSW 28 46 15 25 - - 7.4
20/07:00am 2.4 -3.8 2.3 99 0.0 W 24 65 13 35 - - 7.4
20/06:31am 2.1 -4.9 2.0 99 0.0 W 28 57 15 31 - - 7.0
20/06:30am 2.0 -4.6 1.9 99 0.0 W 26 57 14 31 - - 7.0
20/06:06am 2.4 -5.3 2.3 99 0.0 WNW 32 50 17 27 - - 6.2
20/06:00am 2.4 -5.3 2.3 99 0.0 WNW 32 48 17 26 - - 6.2
20/05:30am 2.1 -6.6 1.8 98 0.1 WNW 37 57 20 31 - - 6.0
20/05:02am 2.2 -7.3 1.9 98 0.1 W 41 61 22 33 - - 5.8
20/05:00am 2.2 -7.3 1.9 98 0.1 W 41 57 22 31 - - 5.8
20/04:38am 2.4 -5.0 2.1 98 0.1 W 30 52 16 28 - - 5.6
20/04:30am 2.3 -4.3 2.0 98 0.1 W 26 43 14 23 - - 5.6
20/04:00am 2.5 -5.8 2.2 98 0.1 WNW 35 54 19 29 - - 5.6
20/03:31am 2.5 -4.5 2.2 98 0.1 W 28 46 15 25 - - 5.6
20/03:30am 2.4 -4.2 2.1 98 0.1 W 26 46 14 25 - - 5.4
20/03:00am 2.5 -4.1 2.2 98 0.1 WNW 26 46 14 25 - - 5.4
20/02:30am 2.6 -4.3 2.3 98 0.1 W 28 48 15 26 - - 5.4
20/02:00am 2.5 -5.4 2.1 97 0.2 W 33 57 18 31 - - 5.4
20/01:57am 2.5 -5.4 2.1 97 0.2 W 33 56 18 30 - - 5.4
20/01:55am 2.7 -5.2 2.3 97 0.2 W 33 63 18 34 - - 5.4
20/01:46am 2.6 -6.1 2.0 96 0.2 WSW 37 70 20 38 - - 5.4
20/01:38am 3.4 -3.4 3.0 97 0.2 W 28 70 15 38 - - 5.2
20/01:32am 3.6 -3.6 3.2 97 0.2 W 30 59 16 32 - - 5.0
20/01:30am 3.7 -3.1 3.3 97 0.2 W 28 59 15 32 - - 5.0
20/01:00am 4.2 -3.5 3.6 96 0.3 WNW 33 69 18 37 - - 5.0
20/12:56am 4.1 -3.4 3.7 97 0.2 WNW 32 69 17 37 - - 5.0
20/12:30am 4.1 -2.6 3.5 96 0.3 WNW 28 50 15 27 - - 4.8
20/12:29am 4.1 -2.6 3.4 95 0.3 WNW 28 50 15 27 - - 4.8
20/12:00am 4.0 -1.6 3.4 96 0.3 NW 22 35 12 19 - - 4.8
 
Date/Time
EDT
Temp
°C
App
Temp
°C
Dew
Point
°C
Rel
Hum
%
Delta-T
°C
Wind Press
QNH
hPa
Press
MSL
hPa
Rain since
9am
mm
Dir  Spd
km/h
Gust
km/h
Spd
kts
Gust
kts
19/11:30pm 4.2 -1.4 3.3 94 0.4 WNW 22 35 12 19 - - 4.8
19/11:00pm 4.1 -3.5 3.1 93 0.4 W 32 54 17 29 - - 4.8
19/10:30pm 4.1 -4.1 2.8 91 0.6 WNW 35 59 19 32 - - 4.8
19/10:02pm 4.2 -3.4 2.7 90 0.6 WNW 32 54 17 29 - - 4.8
19/10:00pm 4.2 -3.4 2.9 91 0.6 WNW 32 46 17 25 - - 4.8
19/09:40pm 4.3 -3.5 3.1 92 0.5 W 33 52 18 28 - - 4.8
19/09:30pm 4.2 -4.0 2.7 90 0.6 WNW 35 52 19 28 - - 4.8
19/09:00pm 4.4 -3.8 2.8 89 0.7 WNW 35 65 19 35 - - 4.8
19/08:30pm 4.8 -4.3 3.8 93 0.4 WNW 41 59 22 32 - - 4.8
19/08:00pm 5.0 -3.0 4.0 93 0.4 WNW 35 61 19 33 - - 4.8
19/07:31pm 5.4 -1.9 4.4 93 0.4 WNW 32 54 17 29 - - 4.8
19/07:30pm 5.4 -1.9 4.4 93 0.4 WNW 32 48 17 26 - - 4.8
19/07:02pm 6.2 -1.5 5.2 93 0.5 WNW 35 57 19 31 - - 4.8
19/07:00pm 6.3 -1.0 5.4 94 0.4 WNW 33 57 18 31 - - 4.8
19/06:31pm 7.1 1.0 6.5 96 0.3 W 28 46 15 25 - - 4.8
19/06:30pm 7.1 0.6 6.5 96 0.3 WNW 30 46 16 25 - - 4.8
19/06:11pm 7.7 1.8 7.3 97 0.2 WNW 28 56 15 30 - - 4.8
19/06:00pm 8.0 3.3 7.7 98 0.1 W 22 41 12 22 - - 4.6
19/05:40pm 8.2 2.4 7.9 98 0.1 WNW 28 52 15 28 - - 4.6
19/05:30pm 8.3 2.5 8.0 98 0.2 WNW 28 44 15 24 - - 4.6
19/05:06pm 8.4 2.6 8.1 98 0.2 W 28 57 15 31 - - 4.6
19/05:00pm 8.4 3.8 8.0 97 0.2 W 22 48 12 26 - - 4.6
19/04:30pm 9.0 4.2 8.7 98 0.2 W 24 43 13 23 - - 4.6
19/04:00pm 9.6 5.6 9.1 97 0.3 W 20 33 11 18 - - 4.6
19/03:30pm 10.4 6.2 9.9 97 0.3 W 22 41 12 22 - - 4.6
19/03:00pm 10.7 5.9 10.2 97 0.3 W 26 56 14 30 - - 4.6
19/02:58pm 10.8 6.0 10.3 97 0.3 W 26 56 14 30 - - 4.6
19/02:30pm 12.2 8.2 11.7 97 0.3 WNW 24 35 13 19 - - 4.0
19/02:00pm 12.5 8.6 12.0 97 0.3 WNW 24 35 13 19 - - 2.0
19/01:30pm 12.4 8.1 12.1 98 0.2 NW 26 39 14 21 - - 1.8
19/01:00pm 12.0 7.2 11.5 97 0.3 WNW 28 41 15 22 - - 1.8
19/12:30pm 11.9 8.2 11.4 97 0.3 WNW 22 33 12 18 - - 1.8
19/12:00pm 11.8 6.5 11.2 96 0.3 WNW 30 48 16 26 - - 1.6
19/11:55am 11.8 6.9 11.2 96 0.3 WNW 28 48 15 26 - - 1.6
19/11:30am 11.9 6.6 11.3 96 0.3 NW 30 39 16 21 - - 1.6
19/11:00am 11.9 6.6 11.4 97 0.3 WNW 30 39 16 21 - - 1.6
19/10:30am 11.4 6.0 10.9 97 0.3 WNW 30 37 16 20 - - 1.6
19/10:00am 11.5 7.3 11.0 97 0.3 WNW 24 30 13 16 - - 1.4
19/09:30am 11.1 7.5 10.6 97 0.3 W 20 30 11 16 - - 1.2
19/09:00am 10.9 5.3 10.3 96 0.3 W 30 43 16 23 - - 1.0
19/08:35am 11.2 4.6 10.1 93 0.6 W 35 56 19 30 - - 0.2
19/08:30am 11.4 5.4 10.1 92 0.7 WSW 32 43 17 23 - - 0.0
19/08:02am 14.2 8.1 8.4 68 3.0 W 30 48 16 26 - - 0.0
19/08:00am 14.5 8.3 8.0 65 3.4 W 30 43 16 23 - - 0.0
19/07:38am 15.8 8.9 6.5 54 4.7 WNW 32 50 17 27 - - 0.0
19/07:30am 15.6 10.2 6.3 54 4.7 WNW 24 33 13 18 - - 0.0
19/07:00am 15.8 9.6 6.0 52 5.0 NW 28 37 15 20 - - 0.0
19/06:30am 15.8 9.9 6.0 52 5.0 NNW 26 39 14 21 - - 0.0
19/06:00am 15.5 10.0 5.7 52 4.9 NNW 24 39 13 21 - - 0.0
19/05:30am 15.3 9.9 6.3 55 4.6 NNW 24 32 13 17 - - 0.0
19/05:00am 15.2 10.5 6.2 55 4.5 NNW 20 32 11 17 - - 0.0
19/04:30am 15.4 10.8 6.7 56 4.4 NW 20 33 11 18 - - 0.0
19/04:00am 15.3 11.8 7.3 59 4.1 NW 15 19 8 10 - - 0.0
19/03:30am 15.5 12.5 7.5 59 4.2 NNW 13 17 7 9 - - 0.0
19/03:00am 15.9 11.8 7.7 58 4.3 WNW 19 28 10 15 - - 0.0
19/02:30am 16.1 10.8 8.3 60 4.1 W 26 39 14 21 - - 0.0
19/02:00am 16.3 12.1 7.3 55 4.7 WNW 19 22 10 12 - - 0.0
19/01:30am 16.9 13.0 7.0 52 5.1 NNW 17 24 9 13 - - 0.0
19/01:00am 17.0 12.5 6.2 49 5.5 NNW 19 28 10 15 - - 0.0
19/12:30am 17.7 13.0 5.9 46 6.0 NNW 20 33 11 18 - - 0.0
19/12:00am 17.8 13.0 5.4 44 6.3 NNW 20 33 11 18 - - 0.0
 
Date/Time
EDT
Temp
°C
App
Temp
°C
Dew
Point
°C
Rel
Hum
%
Delta-T
°C
Wind Press
QNH
hPa
Press
MSL
hPa
Rain since
9am
mm
Dir  Spd
km/h
Gust
km/h
Spd
kts
Gust
kts
18/11:30pm 18.0 13.3 5.2 43 6.5 NNW 19 32 10 17 - - 0.0
18/11:00pm 18.3 13.1 5.5 43 6.5 NNW 22 32 12 17 - - 0.0
18/10:30pm 18.3 14.1 5.8 44 6.4 NNW 17 28 9 15 - - 0.0
18/10:00pm 18.6 14.9 6.1 44 6.4 NNW 15 24 8 13 - - 0.0
18/09:30pm 18.5 13.9 6.7 46 6.2 NW 20 26 11 14 - - 0.0
18/09:00pm 19.0 13.6 6.5 44 6.5 WNW 24 30 13 16 - - 0.0
18/08:30pm 19.3 14.1 5.4 40 7.1 WNW 22 28 12 15 - - 0.0
18/08:00pm 19.8 14.3 3.9 35 7.9 WNW 22 32 12 17 - - 0.0
18/07:30pm 20.3 15.1 3.5 33 8.3 W 20 26 11 14 - - 0.0
18/07:00pm 23.3 19.2 4.3 29 9.8 WNW 15 20 8 11 - - 0.0
18/06:30pm 21.5 16.7 2.7 29 9.3 WNW 17 20 9 11 - - 0.0
18/06:00pm 24.0 19.1 4.9 29 10.0 W 20 28 11 15 - - 0.0
18/05:30pm 24.1 22.4 7.7 35 9.0 NNW 6 13 3 7 - - 0.0
18/05:00pm 24.4 21.2 5.2 29 10.1 NNE 11 19 6 10 - - 0.0
18/04:30pm 25.0 21.8 5.2 28 10.4 NE 11 17 6 9 - - 0.0
18/04:00pm 23.5 20.4 5.4 31 9.5 NNE 11 20 6 11 - - 0.0
18/03:30pm 23.8 21.0 7.0 34 9.1 NNE 11 17 6 9 - - 0.0
18/03:00pm 25.5 23.1 7.1 31 10.1 NNE 9 20 5 11 - - 0.0
18/02:30pm 24.8 21.4 6.1 30 10.0 N 13 20 7 11 - - 0.0
18/02:00pm 23.9 20.9 7.9 36 8.8 NNE 13 20 7 11 - - 0.0
18/01:30pm 24.4 22.0 9.9 40 8.3 NNE 13 20 7 11 - - 0.0
18/01:00pm 23.8 21.5 9.0 39 8.3 N 11 17 6 9 - - 0.0
18/12:30pm 22.9 20.5 8.6 40 7.9 N 11 19 6 10 - - 0.0
18/12:00pm 23.8 21.5 7.4 35 8.9 NNE 9 17 5 9 - - 0.0
18/11:30am 21.9 19.8 8.1 41 7.5 N 9 13 5 7 - - 0.0
18/11:00am 21.4 19.7 9.9 48 6.5 N 9 13 5 7 - - 0.0
18/10:30am 21.1 18.7 7.0 40 7.5 NW 9 17 5 9 - - 0.0
18/10:00am 21.1 17.4 6.2 38 7.8 NW 15 24 8 13 - - 0.0
18/09:30am 19.9 15.1 4.4 36 7.8 NW 19 28 10 15 - - 0.0
18/09:00am 18.4 13.8 3.8 38 7.2 NW 17 28 9 15 - - 0.0
18/08:30am 17.8 13.2 3.7 39 6.9 NW 17 22 9 12 - - 0.0
18/08:00am 16.5 12.1 4.9 46 5.8 WNW 17 30 9 16 - - 0.0
18/07:30am 16.2 10.5 2.9 41 6.3 WNW 22 33 12 18 - - 0.0
18/07:00am 15.4 7.6 2.9 43 5.9 WNW 33 48 18 26 - - 0.0

Other Formats:

Comma delimited format used in spreadsheet applications
http://www.bom.gov.au/fwo/IDT60801/IDT60801.94977.axf

JavaScript Object Notation format (JSON) in row-major order
http://www.bom.gov.au/fwo/IDT60801/IDT60801.94977.json